Aeroporto :
LOGIN :

Iscrizione | Disclaimer

   EN    FR    IT 

 










Sommario :    VFR   VFR Marginale   IFR   IFR Intensivo   IFR Molto Intensivo
Visibilità : 
Base nubi : 
>= 8 km
>= 3000ft
5 / 8 km
1000 / 3000 ft
1500m / 5 km
500 / 1000 ft
800 / 1500m
200 / 500 ft
< 800m
< 200 ft
Simboli :   Temporali  Nebbia  Neve Forte  Precipitazioni Forti  Vento > 20 kt
SIGMETs :   Varie  Temporali  Ghiacco  Turbolenza  Onda orograficha  Ceneri Vulcaniche






- Altitudine del aeroporto : 170 ft
- Codice IATA : KRP


EKKA - Karup

ULTIMO METAR :
  • 201820Z 20016G27KT 160V220 6000 RA SCT008 OVC011 07/06 Q0995

METARs OBSOLETI :
  • 201753Z 20015KT 6000 RA SCT007 OVC009 07/06 Q0995
  • 201720Z 19015KT 2500 -RADZ BR BKN007 OVC008 07/07 Q0996
  • 201653Z 20016G26KT 170V230 2500 -RADZ BR BKN007 OVC008 08/07 Q0997
  • 201628Z AUTO 20015G27KT 9999 -RA BKN007/// 08/07 Q0997
  • 201557Z AUTO 20014G25KT 3300 -RA BR BKN007/// 08/07 Q0998
  • 201542Z AUTO 20014KT 6000 -RA BKN007/// 08/07 Q0998

TAF TAF EKKA
Valido dal 20 a 18 ore il 21 a 18 ore UTC


201705Z 2018/2118 20015KT 8000 RADZ SCT006 BKN015
TEMPO 2018/2019 21018G32KT 2500 -RADZ BKN006
BECMG 2019/2021 29015G30KT 1800 -RADZ BR BKN004
BECMG 2021/2023 28012KT 9999 NSW SCT020
TEMPO 2023/2106 27016G28KT 7000 -SHRASN SCT020CB
TEMPO 2106/2115 27018G30KT
BECMG 2115/2118 27018G30KT 7000 -RA BKN014



MetMap, La meteo Aeronautica in un colpo d'occhio ! - Copyright ORBIFLY Dicembre 2007 - Disclaimer

ORBIFLY MET'MAP TEAM :

Programmazione e sviluppo : Alexandra Zaïnal
Concezione : Baudouin d'Aumeries
Aiuto per la programmazione : Marc-Olivier Méhu
Supporto tecnico e logistico : Manuel Goepfert
Aiuto per la traduzione : Arnaldo La Scala

Contatto : metmap@orbifly.com




FONTI E CREDITI :

   NOAA